Robins Air Force Base
KWRB : now visible

Airfield :











YOU CAN JOIN US ON...

 
LOGIN :

Register | Disclaimer

   EN    FR    IT 

 









Legend :    VFR   Marginal VFR   IFR   Intensive IFR   Very Intensive IFR
Visi :
Ceiling :
>= 8 km
>= 3000ft
5 to 8 km
1000 to 3000 ft
1500m to 5 km
500 to 1000 ft
800 to 1500m
200 to 500 ft
< 800m
< 200 ft
Symbols :   Thunderstorms  Fog  Heavy snow  Heavy precipitations  Wind > 20 kt






- Airport Elevation : 294 ft


KWRB - Robins Air Force Base

CURRENT METAR :
  • 190256Z AUTO 20006KT 10SM CLR 16/15 A3011 RMK AO2 RAB0157E15 SLP199 P0001 60004 T01610150 58010 $

EXPIRED METARs :
  • 190156Z AUTO 20008KT 10SM CLR 16/15 A3013 RMK AO2 RAB19E48 SLP206 P0003 T01590146 $
  • 190128Z 21007KT 9SM -RA FEW008 16/14 A3014 RMK AO2A RAB19 SLP209 $
  • 190119Z 19009KT 10SM -RA FEW009 16/14 A3015 RMK AO2A RAB19 SLP213 $

TAF AMD TAF KWRB
Valid from the 19 at 00:00 until the 20 at 03:00 UTC


190008Z 1900/2003 20009KT 9000 -SHRA BKN020 QNH3010INS
TEMPO 1906/1912 BKN005
BECMG 1908/1909 21009KT 9999 NSW BKN010 QNH3001NS
BECMG 1911/1912 31015G25KT 9999 SKC QNH3009INS
BECMG 1921/1922 31009KT 9999 SKC QNH3012INS TX16/1900Z TN08/1915Z



MET'MAP, your aeronautical weather chart ! - Copyright ORBIFLY December 2007 - Disclaimer

ORBIFLY MET'MAP TEAM :

Programming & Development : Alexandra Zaïnal
Concept & original design : Baudouin d'Aumeries
Assistance for programming : Marc-Olivier Méhu
Technical & hardware support : Manuel Goepfert

Contact : metmap@orbifly.com




SOURCES & CREDITS :

   NOAA       Earth
Advisory